createdAt,value
2023-02-14T00:01:35.352Z,81.21
2023-02-14T00:04:08.001Z,81.57
2023-02-14T00:06:40.526Z,81.37
2023-02-14T00:09:15.691Z,81.47
2023-02-14T00:11:47.889Z,80.94
2023-02-14T00:14:37.257Z,81.39
2023-02-14T00:17:10.000Z,81.28
2023-02-14T00:19:42.239Z,81.09
2023-02-14T00:22:14.364Z,81.15
2023-02-14T00:24:46.532Z,81.01
2023-02-14T00:27:18.804Z,80.68
2023-02-14T00:29:51.002Z,80.51
2023-02-14T00:32:23.340Z,80.47
2023-02-14T00:34:59.683Z,80.65
2023-02-14T00:37:31.920Z,80.59
2023-02-14T00:40:04.912Z,80.58
2023-02-14T00:42:37.288Z,80.97
2023-02-14T00:45:10.784Z,80.85
2023-02-14T00:47:43.047Z,80.73
2023-02-14T00:50:17.165Z,80.55
2023-02-14T00:52:50.087Z,80.32
2023-02-14T00:55:22.642Z,80.24
2023-02-14T00:57:55.005Z,80.03
2023-02-14T01:00:27.656Z,80.38
2023-02-14T01:03:00.983Z,80.40
2023-02-14T01:05:34.623Z,80.69
2023-02-14T01:08:09.289Z,80.55
2023-02-14T01:10:43.941Z,80.36
2023-02-14T01:13:17.020Z,80.07
2023-02-14T01:15:51.861Z,79.92
2023-02-14T01:18:24.255Z,80.20
2023-02-14T01:20:56.758Z,79.95
2023-02-14T01:23:29.809Z,80.04
2023-02-14T01:26:04.982Z,80.43
2023-02-14T01:28:37.718Z,80.63
2023-02-14T01:31:13.391Z,80.41
2023-02-14T01:33:47.480Z,80.50
2023-02-14T01:36:23.055Z,80.65
2023-02-14T01:38:57.352Z,80.91
2023-02-14T01:41:32.288Z,80.56
2023-02-14T01:44:07.732Z,80.69
2023-02-14T01:46:41.481Z,80.65
2023-02-14T01:49:18.838Z,80.59
2023-02-14T01:51:58.427Z,80.91
2023-02-14T01:54:33.191Z,81.16
2023-02-14T01:57:10.015Z,81.14
2023-02-14T01:59:48.651Z,81.01
2023-02-14T02:02:24.094Z,81.00
2023-02-14T02:04:57.863Z,81.10
2023-02-14T02:07:32.633Z,80.95
2023-02-14T02:10:07.509Z,81.13
2023-02-14T02:12:40.631Z,81.44
2023-02-14T02:15:13.507Z,81.44
2023-02-14T02:17:55.581Z,81.72
2023-02-14T02:20:58.529Z,81.73
2023-02-14T02:24:06.346Z,81.51
2023-02-14T02:27:13.892Z,81.16
2023-02-14T02:30:16.966Z,81.01
2023-02-14T02:33:15.573Z,80.83
2023-02-14T02:36:07.003Z,80.73
2023-02-14T02:38:55.899Z,80.39
2023-02-14T02:41:38.477Z,80.60
2023-02-14T02:44:18.263Z,80.25
2023-02-14T02:47:01.122Z,80.15
2023-02-14T02:50:04.235Z,79.75
2023-02-14T02:53:01.617Z,79.46
2023-02-14T02:56:00.886Z,79.07
2023-02-14T02:58:37.974Z,78.72
2023-02-14T03:01:15.011Z,77.85
2023-02-14T03:04:19.992Z,78.31
2023-02-14T03:06:53.330Z,78.27
2023-02-14T03:09:58.118Z,78.90
2023-02-14T03:12:50.459Z,78.94
2023-02-14T03:15:36.343Z,78.72
2023-02-14T03:18:14.096Z,78.64
2023-02-14T03:20:55.450Z,78.40
2023-02-14T03:23:31.743Z,78.16
2023-02-14T03:26:16.180Z,78.10
2023-02-14T03:29:01.033Z,78.02
2023-02-14T03:31:39.383Z,78.03
2023-02-14T03:34:16.568Z,78.31
2023-02-14T03:36:55.162Z,78.57
2023-02-14T03:39:34.689Z,78.96
2023-02-14T03:42:12.816Z,79.13
2023-02-14T03:44:47.905Z,79.18
2023-02-14T03:47:25.344Z,78.70
2023-02-14T03:50:03.326Z,78.51
2023-02-14T03:52:38.308Z,78.20
2023-02-14T03:55:13.798Z,77.99
2023-02-14T03:57:53.485Z,77.69
2023-02-14T04:00:26.084Z,77.64
2023-02-14T04:03:04.999Z,77.27
2023-02-14T04:05:38.670Z,77.09
2023-02-14T04:08:11.129Z,77.13
2023-02-14T04:10:43.715Z,77.26
2023-02-14T04:13:15.937Z,77.33
2023-02-14T04:15:48.651Z,77.68
2023-02-14T04:18:53.762Z,77.69
2023-02-14T04:21:26.251Z,77.00
2023-02-14T04:23:58.568Z,77.15
2023-02-14T04:26:30.676Z,76.56
2023-02-14T04:29:02.738Z,76.45
2023-02-14T04:31:34.947Z,76.54
2023-02-14T04:34:07.286Z,76.25
2023-02-14T04:36:39.495Z,75.92
2023-02-14T04:39:11.923Z,76.22
2023-02-14T04:41:44.286Z,75.90
2023-02-14T04:44:16.937Z,75.99
2023-02-14T04:46:49.673Z,76.37
2023-02-14T04:49:22.486Z,76.31
2023-02-14T04:51:54.809Z,76.35
2023-02-14T04:54:27.237Z,76.49
2023-02-14T04:56:59.524Z,76.39
2023-02-14T04:59:31.682Z,76.85
2023-02-14T05:02:04.501Z,76.58
2023-02-14T05:04:36.699Z,76.47
2023-02-14T05:07:09.071Z,76.13
2023-02-14T05:09:41.137Z,75.29
2023-02-14T05:12:13.919Z,75.51
2023-02-14T05:14:46.138Z,75.82
2023-02-14T05:17:18.341Z,75.90
2023-02-14T05:19:50.788Z,75.82
2023-02-14T05:22:22.983Z,75.67
2023-02-14T05:24:54.999Z,75.80
2023-02-14T05:27:27.382Z,75.83
2023-02-14T05:29:59.657Z,76.39
2023-02-14T05:32:31.800Z,76.75
2023-02-14T05:35:03.894Z,77.09
2023-02-14T05:37:35.977Z,77.09
2023-02-14T05:40:10.119Z,77.07
2023-02-14T05:42:42.332Z,76.55
2023-02-14T05:45:15.239Z,76.32
2023-02-14T05:47:48.682Z,76.25
2023-02-14T05:50:21.183Z,76.12
2023-02-14T05:52:53.522Z,75.97
2023-02-14T05:55:26.459Z,76.20
2023-02-14T05:57:58.736Z,76.04
2023-02-14T06:00:31.354Z,76.57
2023-02-14T06:03:04.233Z,76.83
2023-02-14T06:05:36.468Z,76.77
2023-02-14T06:08:08.886Z,76.56
2023-02-14T06:10:41.223Z,76.55
2023-02-14T06:13:13.790Z,75.96
2023-02-14T06:15:46.065Z,76.00
2023-02-14T06:18:18.327Z,76.17
2023-02-14T06:20:50.487Z,76.02
2023-02-14T06:23:22.722Z,76.13
2023-02-14T06:25:54.970Z,76.18
2023-02-14T06:28:27.061Z,76.12
2023-02-14T06:30:59.771Z,75.77
2023-02-14T06:33:32.227Z,76.10
2023-02-14T06:36:07.228Z,76.48
2023-02-14T06:38:39.296Z,76.23
2023-02-14T06:41:15.071Z,76.19
2023-02-14T06:43:49.534Z,76.18
2023-02-14T06:46:22.603Z,76.04
2023-02-14T06:48:55.942Z,75.81
2023-02-14T06:51:28.904Z,75.99
2023-02-14T06:54:01.144Z,76.00
2023-02-14T06:56:33.644Z,76.37
2023-02-14T06:59:06.593Z,76.61
2023-02-14T07:01:39.184Z,76.82
2023-02-14T07:04:12.302Z,76.80
2023-02-14T07:06:44.742Z,76.70
2023-02-14T07:09:18.589Z,76.33
2023-02-14T07:11:51.430Z,76.25
2023-02-14T07:14:23.686Z,76.19
2023-02-14T07:16:55.839Z,76.42
2023-02-14T07:19:28.594Z,77.00
2023-02-14T07:22:00.933Z,76.98
2023-02-14T07:24:33.779Z,76.90
2023-02-14T07:27:07.262Z,76.65
2023-02-14T07:29:39.431Z,76.65
2023-02-14T07:32:11.843Z,76.27
2023-02-14T07:34:44.236Z,76.62
2023-02-14T07:37:17.963Z,76.81
2023-02-14T07:39:50.351Z,76.97
2023-02-14T07:42:22.408Z,76.96
2023-02-14T07:44:54.619Z,76.71
2023-02-14T07:47:27.215Z,76.57
2023-02-14T07:49:59.952Z,76.30
2023-02-14T07:52:32.619Z,76.02
2023-02-14T07:55:04.955Z,76.02
2023-02-14T07:57:38.690Z,75.81
2023-02-14T08:00:15.916Z,75.98
2023-02-14T08:02:49.656Z,76.04
2023-02-14T08:05:22.944Z,76.33
2023-02-14T08:07:56.285Z,76.25
2023-02-14T08:10:28.688Z,75.86
2023-02-14T08:13:05.237Z,75.78
2023-02-14T08:15:56.604Z,75.46
2023-02-14T08:18:29.025Z,75.36
2023-02-14T08:21:02.365Z,75.03
2023-02-14T08:23:35.506Z,74.84
2023-02-14T08:26:08.767Z,75.01
2023-02-14T08:28:42.166Z,74.84
2023-02-14T08:31:34.330Z,74.78
2023-02-14T08:34:07.970Z,74.85
2023-02-14T08:36:40.166Z,74.63
2023-02-14T08:39:12.769Z,75.07
2023-02-14T08:41:45.222Z,75.48
2023-02-14T08:44:17.999Z,75.49
2023-02-14T08:46:56.120Z,75.02
2023-02-14T08:49:30.054Z,75.12
2023-02-14T08:52:02.515Z,74.95
2023-02-14T08:54:35.308Z,74.93
2023-02-14T08:57:07.889Z,74.58
2023-02-14T08:59:41.017Z,74.24
2023-02-14T09:02:16.853Z,74.28
2023-02-14T09:04:49.100Z,74.22
2023-02-14T09:07:34.199Z,74.27
2023-02-14T09:10:11.545Z,74.18
2023-02-14T09:12:44.793Z,74.54
2023-02-14T09:15:17.128Z,74.95
2023-02-14T09:17:51.304Z,74.73
2023-02-14T09:20:23.974Z,74.71
2023-02-14T09:22:59.571Z,73.91
2023-02-14T09:25:33.525Z,73.73
2023-02-14T09:28:06.235Z,73.49
2023-02-14T09:30:38.758Z,73.62
2023-02-14T09:33:11.895Z,73.06
2023-02-14T09:36:02.250Z,72.88
2023-02-14T09:38:34.522Z,73.24
2023-02-14T09:41:11.029Z,73.60
2023-02-14T09:43:53.394Z,73.66
2023-02-14T09:46:26.034Z,73.57
2023-02-14T09:49:00.067Z,73.29
2023-02-14T09:51:34.601Z,72.97
2023-02-14T09:54:13.482Z,72.76
2023-02-14T09:56:58.622Z,72.68
2023-02-14T09:59:38.899Z,72.90
2023-02-14T10:02:35.045Z,72.43
2023-02-14T10:05:16.121Z,72.50
2023-02-14T10:08:01.762Z,72.51
2023-02-14T10:10:41.712Z,72.39
2023-02-14T10:13:21.599Z,72.25
2023-02-14T10:16:03.471Z,71.91
2023-02-14T10:18:42.768Z,72.43
2023-02-14T10:21:22.464Z,72.34
2023-02-14T10:24:02.276Z,72.32
2023-02-14T10:26:40.234Z,72.45
2023-02-14T10:29:16.972Z,72.37
2023-02-14T10:31:59.100Z,72.11
2023-02-14T10:34:41.511Z,71.67
2023-02-14T10:37:30.167Z,71.88
2023-02-14T10:40:25.249Z,71.52
2023-02-14T10:43:11.062Z,71.83
2023-02-14T10:45:54.812Z,70.78
2023-02-14T10:48:48.461Z,70.67
2023-02-14T10:51:32.728Z,70.83
2023-02-14T10:54:19.140Z,71.30
2023-02-14T10:56:58.345Z,71.41
2023-02-14T10:59:37.289Z,71.79
2023-02-14T11:02:14.850Z,71.68
2023-02-14T11:04:52.192Z,71.07
2023-02-14T11:07:25.135Z,70.79
2023-02-14T11:09:58.111Z,70.69
2023-02-14T11:12:39.187Z,70.57
2023-02-14T11:15:26.964Z,70.55
2023-02-14T11:18:25.309Z,70.15
2023-02-14T11:21:07.929Z,70.06
2023-02-14T11:23:43.698Z,69.72
2023-02-14T11:26:18.520Z,69.62
2023-02-14T11:29:00.730Z,69.53
2023-02-14T11:31:36.733Z,69.26
2023-02-14T11:34:27.106Z,69.46
2023-02-14T11:36:59.815Z,68.87
2023-02-14T11:39:48.939Z,69.79
2023-02-14T11:42:41.762Z,69.57
2023-02-14T11:45:33.274Z,69.52
2023-02-14T11:48:24.948Z,69.93
2023-02-14T11:51:09.124Z,69.52
2023-02-14T11:53:49.129Z,69.63
2023-02-14T11:56:24.002Z,69.47
2023-02-14T11:58:59.477Z,68.45
2023-02-14T12:01:35.061Z,68.30
2023-02-14T12:04:21.262Z,68.26
2023-02-14T12:06:54.447Z,67.78
2023-02-14T12:09:31.622Z,67.82
2023-02-14T12:12:06.153Z,67.90
2023-02-14T12:14:39.022Z,67.93
2023-02-14T12:17:23.787Z,67.84
2023-02-14T12:20:02.190Z,68.00
2023-02-14T12:22:41.468Z,67.98
2023-02-14T12:25:19.069Z,67.94
2023-02-14T12:27:55.629Z,67.77
2023-02-14T12:30:32.631Z,68.25
2023-02-14T12:33:14.383Z,67.78
2023-02-14T12:35:53.535Z,67.86
2023-02-14T12:38:40.567Z,68.41
2023-02-14T12:41:36.305Z,68.62
2023-02-14T12:44:18.638Z,68.39
2023-02-14T12:47:19.706Z,68.33
2023-02-14T12:50:25.071Z,68.02
2023-02-14T12:53:26.323Z,67.84
2023-02-14T12:56:11.076Z,67.74
2023-02-14T12:58:56.630Z,67.39
2023-02-14T13:01:54.141Z,67.58
2023-02-14T13:04:49.758Z,67.65
2023-02-14T13:07:39.625Z,68.00
2023-02-14T13:10:23.266Z,67.41
2023-02-14T13:13:06.072Z,67.60
2023-02-14T13:15:52.952Z,67.40
2023-02-14T13:18:38.757Z,67.36
2023-02-14T13:21:16.191Z,67.44
2023-02-14T13:23:53.130Z,67.46
2023-02-14T13:26:31.647Z,67.86
2023-02-14T13:29:08.028Z,67.72
2023-02-14T13:31:42.084Z,67.98
2023-02-14T13:34:26.989Z,68.02
2023-02-14T13:37:02.040Z,67.61
2023-02-14T13:39:38.742Z,67.58
2023-02-14T13:42:12.221Z,67.61
2023-02-14T13:44:50.262Z,67.65
2023-02-14T13:47:31.589Z,68.35
2023-02-14T13:50:21.774Z,68.77
2023-02-14T13:52:55.755Z,68.97
2023-02-14T13:55:34.041Z,68.58
2023-02-14T13:58:07.747Z,68.79
2023-02-14T14:00:44.953Z,67.60
2023-02-14T14:03:39.168Z,68.29
2023-02-14T14:06:13.619Z,67.79
2023-02-14T14:08:49.368Z,68.04
2023-02-14T14:11:58.070Z,68.30
2023-02-14T14:14:40.002Z,68.19
2023-02-14T14:17:28.044Z,68.27
2023-02-14T14:20:01.509Z,68.82
2023-02-14T14:22:33.791Z,68.25
2023-02-14T14:25:13.016Z,68.17
2023-02-14T14:27:48.825Z,68.13
2023-02-14T14:30:25.923Z,68.68
2023-02-14T14:33:13.997Z,68.37
2023-02-14T14:35:58.078Z,68.61
2023-02-14T14:38:33.042Z,68.53
2023-02-14T14:41:05.700Z,68.74
2023-02-14T14:43:40.800Z,69.43
2023-02-14T14:46:16.420Z,69.87
2023-02-14T14:48:54.644Z,69.64
2023-02-14T14:51:36.869Z,69.16
2023-02-14T14:54:09.060Z,69.23
2023-02-14T14:56:48.023Z,69.17
2023-02-14T14:59:29.287Z,69.25
2023-02-14T15:02:02.128Z,69.13
2023-02-14T15:04:36.567Z,69.05
2023-02-14T15:07:30.378Z,69.46
2023-02-14T15:10:02.800Z,69.23
2023-02-14T15:12:53.768Z,69.60
2023-02-14T15:15:26.114Z,69.65
2023-02-14T15:17:59.013Z,69.70
2023-02-14T15:20:31.483Z,69.75
2023-02-14T15:23:06.136Z,69.75
2023-02-14T15:25:40.219Z,69.70
2023-02-14T15:28:27.967Z,70.23
2023-02-14T15:31:03.575Z,70.40
2023-02-14T15:33:35.294Z,70.74
2023-02-14T15:36:17.440Z,71.04
2023-02-14T15:38:57.621Z,71.24
2023-02-14T15:41:31.230Z,71.14
2023-02-14T15:44:04.429Z,71.02
2023-02-14T15:46:40.270Z,70.89
2023-02-14T15:49:17.659Z,70.81
2023-02-14T15:51:51.710Z,70.80
2023-02-14T15:54:29.169Z,70.96
2023-02-14T15:57:02.865Z,71.11
2023-02-14T15:59:37.805Z,71.49
2023-02-14T16:02:28.852Z,71.52
2023-02-14T16:05:15.442Z,71.20
2023-02-14T16:08:01.417Z,70.96
2023-02-14T16:10:35.433Z,70.98
2023-02-14T16:13:20.019Z,71.61
2023-02-14T16:16:01.519Z,71.54
2023-02-14T16:18:39.941Z,71.89
2023-02-14T16:21:18.934Z,71.52
2023-02-14T16:24:14.263Z,71.59
2023-02-14T16:26:47.605Z,71.30
2023-02-14T16:29:21.278Z,71.61
2023-02-14T16:32:14.701Z,71.29
2023-02-14T16:34:48.494Z,71.12
2023-02-14T16:37:24.525Z,71.23
2023-02-14T16:39:57.868Z,71.13
2023-02-14T16:42:31.666Z,71.33
2023-02-14T16:45:04.394Z,71.80
2023-02-14T16:47:36.681Z,71.43
2023-02-14T16:50:10.749Z,71.56
2023-02-14T16:52:44.558Z,71.87
2023-02-14T16:55:21.649Z,72.03
2023-02-14T16:57:55.721Z,71.91
2023-02-14T17:00:28.946Z,71.69
2023-02-14T17:03:07.678Z,71.40
2023-02-14T17:05:41.716Z,71.63
2023-02-14T17:08:16.497Z,71.62
2023-02-14T17:10:49.980Z,71.36
2023-02-14T17:13:25.288Z,71.19
2023-02-14T17:15:58.442Z,71.27
2023-02-14T17:18:31.923Z,71.54
2023-02-14T17:21:05.544Z,71.79
2023-02-14T17:23:37.717Z,71.93
2023-02-14T17:26:11.488Z,71.76
2023-02-14T17:28:43.712Z,72.02
2023-02-14T17:31:16.582Z,72.37
2023-02-14T17:33:49.213Z,72.36
2023-02-14T17:36:23.546Z,72.48
2023-02-14T17:38:56.843Z,72.27
2023-02-14T17:41:29.754Z,72.23
2023-02-14T17:44:02.127Z,71.59
2023-02-14T17:46:34.803Z,71.73
2023-02-14T17:49:08.418Z,71.93
2023-02-14T17:51:40.635Z,72.09
2023-02-14T17:54:13.359Z,71.99
2023-02-14T17:56:45.830Z,72.00
2023-02-14T17:59:18.208Z,71.91
2023-02-14T18:01:50.494Z,72.36
2023-02-14T18:04:22.656Z,72.00
2023-02-14T18:06:55.128Z,71.96
2023-02-14T18:09:27.637Z,72.25
2023-02-14T18:12:00.105Z,72.37
2023-02-14T18:14:32.830Z,72.38
2023-02-14T18:17:05.998Z,72.38
2023-02-14T18:19:38.199Z,72.30
2023-02-14T18:22:10.876Z,72.45
2023-02-14T18:24:43.973Z,72.15
2023-02-14T18:27:16.545Z,72.13
2023-02-14T18:29:49.275Z,72.08
2023-02-14T18:32:22.173Z,72.31
2023-02-14T18:34:54.517Z,72.16
2023-02-14T18:37:26.859Z,72.04
2023-02-14T18:39:59.355Z,72.36
2023-02-14T18:42:32.007Z,72.67
2023-02-14T18:45:05.016Z,72.94
2023-02-14T18:47:37.409Z,73.05
2023-02-14T18:50:12.119Z,72.93
2023-02-14T18:52:44.951Z,72.63
2023-02-14T18:55:17.469Z,72.35
2023-02-14T18:57:50.357Z,72.38
2023-02-14T19:00:23.650Z,72.31
2023-02-14T19:02:55.777Z,72.26
2023-02-14T19:05:28.881Z,72.54
2023-02-14T19:08:01.342Z,72.26
2023-02-14T19:10:34.438Z,72.07
2023-02-14T19:13:06.978Z,72.03
2023-02-14T19:15:39.235Z,72.08
2023-02-14T19:18:11.414Z,71.99
2023-02-14T19:20:43.697Z,71.96
2023-02-14T19:23:15.992Z,72.21
2023-02-14T19:25:49.037Z,72.75
2023-02-14T19:28:22.015Z,72.74
2023-02-14T19:30:54.316Z,72.69
2023-02-14T19:33:26.774Z,71.93
2023-02-14T19:36:05.824Z,71.95
2023-02-14T19:38:38.614Z,71.41
2023-02-14T19:41:17.705Z,71.89
2023-02-14T19:43:51.449Z,71.14
2023-02-14T19:46:24.417Z,71.16
2023-02-14T19:48:58.395Z,71.48
2023-02-14T19:51:33.960Z,71.66
2023-02-14T19:54:09.910Z,71.52
2023-02-14T19:56:44.782Z,71.62
2023-02-14T19:59:20.374Z,71.69
2023-02-14T20:01:54.698Z,72.16
2023-02-14T20:04:29.661Z,72.17
2023-02-14T20:07:02.020Z,72.57
2023-02-14T20:09:34.805Z,72.92
2023-02-14T20:12:08.292Z,73.10
2023-02-14T20:14:50.930Z,73.31
2023-02-14T20:17:24.025Z,72.80
2023-02-14T20:19:56.411Z,72.65
2023-02-14T20:22:28.926Z,72.40
2023-02-14T20:25:01.738Z,72.39
2023-02-14T20:27:34.124Z,72.51
2023-02-14T20:30:09.279Z,72.33
2023-02-14T20:32:41.622Z,72.19
2023-02-14T20:35:14.798Z,72.03
2023-02-14T20:37:47.392Z,71.87
2023-02-14T20:40:20.373Z,72.25
2023-02-14T20:42:53.684Z,72.44
2023-02-14T20:45:26.256Z,72.78
2023-02-14T20:48:03.413Z,73.22
2023-02-14T20:50:36.216Z,73.13
2023-02-14T20:53:08.799Z,72.93
2023-02-14T20:55:44.942Z,72.80
2023-02-14T20:58:17.719Z,72.27
2023-02-14T21:00:50.247Z,72.13
2023-02-14T21:03:23.940Z,72.14
2023-02-14T21:05:56.371Z,71.76
2023-02-14T21:08:29.368Z,72.09
2023-02-14T21:11:02.236Z,72.02
2023-02-14T21:13:35.632Z,71.73
2023-02-14T21:16:10.164Z,71.75
2023-02-14T21:18:43.018Z,72.65
2023-02-14T21:21:19.927Z,72.36
2023-02-14T21:23:54.149Z,72.84
2023-02-14T21:26:26.946Z,73.22
2023-02-14T21:29:00.113Z,73.52
2023-02-14T21:31:33.786Z,73.72
2023-02-14T21:34:07.305Z,73.18
2023-02-14T21:36:39.471Z,73.10
2023-02-14T21:39:11.603Z,72.57
2023-02-14T21:41:43.804Z,72.60
2023-02-14T21:44:40.568Z,73.01
2023-02-14T21:47:13.196Z,73.10
2023-02-14T21:50:03.158Z,72.92
2023-02-14T21:52:35.950Z,73.15
2023-02-14T21:55:10.244Z,73.95
2023-02-14T21:57:42.975Z,73.72
2023-02-14T22:00:17.760Z,73.55
2023-02-14T22:02:50.443Z,73.55
2023-02-14T22:05:22.915Z,73.88
2023-02-14T22:07:55.220Z,74.06
2023-02-14T22:10:27.288Z,73.86
2023-02-14T22:12:59.489Z,73.52
2023-02-14T22:15:31.733Z,73.38
2023-02-14T22:18:04.061Z,73.41
2023-02-14T22:20:36.578Z,73.47
2023-02-14T22:23:08.781Z,73.18
2023-02-14T22:25:41.166Z,73.83
2023-02-14T22:28:13.670Z,74.13
2023-02-14T22:30:46.005Z,73.85
2023-02-14T22:33:18.242Z,74.06
2023-02-14T22:35:55.072Z,74.29
2023-02-14T22:38:29.207Z,74.56
2023-02-14T22:41:08.496Z,74.69
2023-02-14T22:43:41.769Z,74.64
2023-02-14T22:46:17.315Z,73.97
2023-02-14T22:49:05.365Z,73.96
2023-02-14T22:51:40.146Z,74.06
2023-02-14T22:54:15.042Z,74.15
2023-02-14T22:56:50.353Z,74.12
2023-02-14T22:59:24.501Z,73.95
2023-02-14T23:01:57.615Z,74.03
2023-02-14T23:04:30.857Z,74.75
2023-02-14T23:07:03.083Z,74.64
2023-02-14T23:09:35.552Z,74.64
2023-02-14T23:12:28.671Z,74.61
2023-02-14T23:15:18.748Z,74.54
2023-02-14T23:18:08.850Z,74.43
2023-02-14T23:20:58.868Z,74.21
2023-02-14T23:23:35.245Z,74.10
2023-02-14T23:26:07.672Z,74.10
2023-02-14T23:28:40.894Z,74.13
2023-02-14T23:31:13.137Z,74.14
2023-02-14T23:33:46.629Z,74.71
2023-02-14T23:36:18.845Z,74.55
2023-02-14T23:38:51.329Z,74.67
2023-02-14T23:41:41.409Z,74.90
2023-02-14T23:44:13.745Z,75.07
2023-02-14T23:46:47.750Z,75.12
2023-02-14T23:49:20.690Z,74.89
2023-02-14T23:51:54.798Z,74.88
2023-02-14T23:54:27.487Z,74.74
2023-02-14T23:56:59.827Z,74.95
2023-02-14T23:59:32.381Z,75.35
